Arenas Valley, New Mexico
Current Conditions -  °F | °C
As of 9:35 AM on Friday 24 Oct 2014 (Local Time) from KSVC Reporting Station
Clear Clear  
Wind Chill: 18°   Ceiling: Unl
Heat Index: 18°   Visibility: 10mi
Dew Point:   Wind: 0mph
Humidity: 49%   Direction: NA
Pressure: 30.36"   Gusts: NA
Location:  32.79°N, 108.18°W
Report Text: KSVC 241535Z AUTO 00000KT 10SM CLR 18/07 A3036 RMK AO2
Loading
Personal Weather Stations






























Interactive Weather Map
Tropical Storm Tracking
New forecast layout! Learn more

10-Day Weather Forecast

Advertisements
Track Severe Weather on mobile